createdAt,value
2018-07-13T00:01:38.471Z,2.53
2018-07-13T00:04:07.515Z,2.60
2018-07-13T00:06:36.576Z,2.83
2018-07-13T00:09:08.081Z,2.70
2018-07-13T00:11:37.415Z,2.60
2018-07-13T00:14:16.763Z,2.57
2018-07-13T00:16:46.669Z,3.10
2018-07-13T00:19:16.356Z,2.80
2018-07-13T00:21:45.424Z,2.60
2018-07-13T00:24:14.222Z,3.10
2018-07-13T00:26:43.161Z,3.13
2018-07-13T00:29:12.434Z,5.50
2018-07-13T00:31:42.476Z,2.83
2018-07-13T00:34:11.513Z,3.93
2018-07-13T00:36:40.571Z,3.00
2018-07-13T00:39:11.080Z,2.90
2018-07-13T00:41:40.143Z,3.60
2018-07-13T00:44:09.470Z,3.40
2018-07-13T00:46:38.574Z,3.80
2018-07-13T00:49:07.620Z,3.90
2018-07-13T00:51:36.679Z,4.37
2018-07-13T00:54:05.740Z,4.90
2018-07-13T00:56:34.784Z,5.27
2018-07-13T00:59:03.856Z,5.20
2018-07-13T01:01:32.887Z,5.97
2018-07-13T01:04:01.943Z,6.13
2018-07-13T01:06:30.987Z,6.77
2018-07-13T01:09:00.072Z,6.53
2018-07-13T01:11:29.114Z,7.07
2018-07-13T01:13:58.184Z,6.93
2018-07-13T01:16:27.223Z,6.47
2018-07-13T01:18:56.283Z,8.13
2018-07-13T01:21:25.082Z,6.33
2018-07-13T01:23:53.794Z,6.40
2018-07-13T01:26:22.459Z,7.70
2018-07-13T01:28:51.439Z,6.80
2018-07-13T01:31:20.235Z,6.80
2018-07-13T01:33:49.175Z,6.70
2018-07-13T01:36:18.227Z,7.43
2018-07-13T01:38:47.291Z,7.37
2018-07-13T01:41:16.343Z,6.77
2018-07-13T01:43:45.420Z,6.90
2018-07-13T01:46:14.467Z,9.07
2018-07-13T01:48:43.549Z,7.03
2018-07-13T01:51:12.587Z,7.70
2018-07-13T01:53:41.647Z,7.40
2018-07-13T01:56:10.708Z,10.13
2018-07-13T01:58:39.775Z,8.10
2018-07-13T02:01:08.832Z,9.10
2018-07-13T02:03:37.895Z,8.97
2018-07-13T02:06:06.943Z,8.60
2018-07-13T02:08:36.036Z,9.23
2018-07-13T02:11:05.126Z,9.73
2018-07-13T02:13:34.228Z,10.63
2018-07-13T02:16:03.288Z,10.00
2018-07-13T02:18:32.347Z,11.03
2018-07-13T02:21:01.175Z,11.13
2018-07-13T02:23:30.108Z,13.17
2018-07-13T02:25:59.187Z,11.23
2018-07-13T02:28:28.252Z,11.07
2018-07-13T02:30:57.324Z,11.00
2018-07-13T02:33:26.136Z,10.80
2018-07-13T02:35:54.831Z,13.27
2018-07-13T02:38:23.763Z,15.07
2018-07-13T02:40:52.848Z,11.17
2018-07-13T02:43:21.912Z,11.83
2018-07-13T02:45:50.995Z,12.87
2018-07-13T02:48:20.059Z,13.90
2018-07-13T02:50:49.140Z,15.60
2018-07-13T02:53:18.204Z,12.93
2018-07-13T02:55:47.289Z,14.27
2018-07-13T02:58:16.442Z,14.43
2018-07-13T03:00:45.549Z,14.50
2018-07-13T03:03:14.360Z,13.93
2018-07-13T03:05:43.096Z,13.27
2018-07-13T03:08:12.040Z,13.27
2018-07-13T03:10:41.110Z,15.60
2018-07-13T03:13:10.151Z,13.90
2018-07-13T03:15:39.276Z,13.43
2018-07-13T03:18:08.332Z,16.23
2018-07-13T03:20:37.401Z,15.33
2018-07-13T03:23:06.211Z,14.77
2018-07-13T03:25:34.948Z,14.73
2018-07-13T03:28:03.877Z,13.47
2018-07-13T03:30:32.735Z,14.07
2018-07-13T03:33:01.669Z,13.40
2018-07-13T03:35:30.487Z,14.90
2018-07-13T03:37:59.419Z,12.40
2018-07-13T03:40:28.492Z,10.70
2018-07-13T03:42:57.531Z,14.40
2018-07-13T03:45:26.382Z,13.43
2018-07-13T03:47:55.316Z,12.03
2018-07-13T03:50:24.178Z,12.67
2018-07-13T03:52:53.108Z,13.73
2018-07-13T03:55:22.232Z,13.03
2018-07-13T03:57:51.303Z,12.33
2018-07-13T04:00:20.352Z,11.30
2018-07-13T04:02:49.493Z,14.17
2018-07-13T04:05:18.539Z,11.33
2018-07-13T04:07:47.623Z,11.23
2018-07-13T04:10:16.672Z,9.20
2018-07-13T04:12:45.482Z,10.80
2018-07-13T04:15:14.587Z,10.17
2018-07-13T04:17:43.656Z,10.30
2018-07-13T04:20:12.451Z,8.60
2018-07-13T04:22:41.392Z,8.03
2018-07-13T04:25:10.649Z,9.57
2018-07-13T04:27:39.495Z,8.20
2018-07-13T04:30:08.456Z,9.67
2018-07-13T04:32:37.520Z,9.10
2018-07-13T04:35:06.583Z,8.90
2018-07-13T04:37:35.643Z,7.53
2018-07-13T04:40:04.792Z,7.30
2018-07-13T04:42:33.888Z,7.43
2018-07-13T04:45:02.932Z,7.67
2018-07-13T04:47:31.988Z,7.67
2018-07-13T04:50:00.824Z,7.20
2018-07-13T04:52:29.764Z,7.83
2018-07-13T04:54:58.799Z,7.00
2018-07-13T04:57:27.860Z,8.60
2018-07-13T04:59:57.252Z,8.67
2018-07-13T05:02:26.187Z,7.47
2018-07-13T05:04:55.231Z,9.70
2018-07-13T05:07:24.315Z,6.70
2018-07-13T05:09:53.372Z,7.23
2018-07-13T05:12:22.448Z,6.03
2018-07-13T05:14:51.239Z,9.10
2018-07-13T05:17:20.195Z,8.37
2018-07-13T05:19:49.256Z,8.97
2018-07-13T05:22:18.328Z,8.90
2018-07-13T05:24:47.383Z,7.17
2018-07-13T05:27:16.466Z,6.93
2018-07-13T05:29:45.847Z,7.57
2018-07-13T05:32:14.891Z,7.07
2018-07-13T05:34:43.971Z,11.47
2018-07-13T05:37:13.299Z,7.00
2018-07-13T05:39:42.380Z,10.03
2018-07-13T05:42:11.440Z,8.37
2018-07-13T05:44:40.511Z,7.67
2018-07-13T05:47:09.559Z,8.83
2018-07-13T05:49:38.632Z,6.50
2018-07-13T05:52:07.703Z,7.27
2018-07-13T05:54:36.778Z,6.53
2018-07-13T05:57:05.642Z,7.63
2018-07-13T05:59:34.596Z,7.07
2018-07-13T06:02:03.672Z,10.03
2018-07-13T06:04:32.812Z,7.50
2018-07-13T06:07:01.909Z,7.87
2018-07-13T06:09:30.986Z,7.97
2018-07-13T06:12:00.497Z,7.73
2018-07-13T06:14:29.568Z,7.57
2018-07-13T06:16:58.615Z,7.57
2018-07-13T06:19:27.709Z,7.17
2018-07-13T06:21:56.769Z,8.07
2018-07-13T06:24:25.843Z,6.80
2018-07-13T06:26:54.895Z,6.17
2018-07-13T06:29:23.971Z,5.93
2018-07-13T06:31:53.032Z,10.23
2018-07-13T06:34:21.846Z,8.77
2018-07-13T06:36:50.777Z,5.63
2018-07-13T06:39:19.849Z,6.07
2018-07-13T06:41:48.899Z,5.73
2018-07-13T06:44:17.706Z,4.60
2018-07-13T06:46:47.496Z,8.10
2018-07-13T06:49:17.017Z,5.20
2018-07-13T06:51:46.200Z,4.57
2018-07-13T06:54:15.508Z,5.17
2018-07-13T06:56:44.609Z,5.03
2018-07-13T06:59:15.173Z,5.90
2018-07-13T07:01:44.872Z,6.47
2018-07-13T07:04:36.802Z,5.47
2018-07-13T07:07:10.424Z,5.67
2018-07-13T07:09:40.320Z,7.90
2018-07-13T07:13:18.259Z,6.67
2018-07-13T07:15:47.096Z,5.97
2018-07-13T07:18:16.152Z,6.13
2018-07-13T07:20:45.289Z,6.60
2018-07-13T07:23:14.083Z,6.20
2018-07-13T07:25:43.040Z,7.37
2018-07-13T07:28:12.091Z,6.27
2018-07-13T07:30:41.217Z,9.03
2018-07-13T07:33:10.243Z,8.90
2018-07-13T07:35:39.316Z,9.50
2018-07-13T07:38:08.371Z,8.37
2018-07-13T07:40:37.464Z,5.27
2018-07-13T07:43:06.535Z,3.30
2018-07-13T07:45:35.607Z,5.73
2018-07-13T07:48:04.747Z,3.07
2018-07-13T07:50:33.824Z,5.33
2018-07-13T07:53:02.863Z,3.97
2018-07-13T07:55:31.924Z,2.40
2018-07-13T07:58:00.735Z,3.87
2018-07-13T08:00:29.403Z,2.97
2018-07-13T08:02:58.360Z,3.13
2018-07-13T08:05:27.453Z,2.70
2018-07-13T08:07:56.575Z,3.27
2018-07-13T08:10:25.619Z,3.20
2018-07-13T08:12:55.684Z,2.53
2018-07-13T08:15:24.753Z,2.10
2018-07-13T08:17:53.812Z,2.50
2018-07-13T08:20:26.375Z,2.20
2018-07-13T08:22:57.131Z,2.83
2018-07-13T08:25:27.660Z,2.60
2018-07-13T08:28:00.456Z,4.60
2018-07-13T08:30:38.119Z,2.70
2018-07-13T08:33:07.175Z,2.77
2018-07-13T08:35:36.284Z,2.50
2018-07-13T08:38:05.740Z,2.00
2018-07-13T08:40:34.779Z,3.73
2018-07-13T08:43:03.859Z,3.03
2018-07-13T08:45:32.932Z,2.47
2018-07-13T08:48:02.000Z,2.37
2018-07-13T08:50:30.963Z,2.67
2018-07-13T08:53:00.142Z,2.87
2018-07-13T08:55:29.411Z,3.50
2018-07-13T08:57:58.683Z,3.90
2018-07-13T09:00:27.736Z,5.10
2018-07-13T09:02:56.812Z,2.03
2018-07-13T09:05:25.868Z,3.87
2018-07-13T09:07:55.038Z,2.77
2018-07-13T09:10:24.083Z,3.47
2018-07-13T09:12:53.212Z,2.17
2018-07-13T09:15:21.963Z,4.50
2018-07-13T09:17:50.656Z,2.60
2018-07-13T09:20:19.572Z,1.33
2018-07-13T09:22:48.632Z,1.03
2018-07-13T09:25:17.418Z,5.77
2018-07-13T09:27:46.361Z,1.97
2018-07-13T09:30:15.408Z,1.47
2018-07-13T09:32:44.488Z,3.40
2018-07-13T09:35:13.568Z,1.53
2018-07-13T09:37:42.620Z,1.70
2018-07-13T09:40:11.708Z,1.10
2018-07-13T09:42:40.751Z,6.30
2018-07-13T09:45:09.807Z,1.27
2018-07-13T09:47:38.851Z,1.80
2018-07-13T09:50:07.911Z,2.70
2018-07-13T09:52:36.951Z,2.30
2018-07-13T09:55:06.092Z,2.30
2018-07-13T09:57:35.148Z,3.00
2018-07-13T10:00:04.284Z,2.00
2018-07-13T10:02:33.333Z,3.67
2018-07-13T10:05:02.414Z,5.37
2018-07-13T10:07:31.477Z,2.60
2018-07-13T10:10:00.542Z,3.80
2018-07-13T10:12:29.597Z,2.37
2018-07-13T10:14:58.663Z,3.17
2018-07-13T10:17:27.722Z,4.53
2018-07-13T10:19:56.793Z,2.13
2018-07-13T10:22:27.591Z,3.50
2018-07-13T10:24:59.151Z,1.73
2018-07-13T10:27:31.012Z,2.20
2018-07-13T10:30:01.457Z,1.87
2018-07-13T10:32:31.127Z,2.10
2018-07-13T10:35:01.775Z,1.83
2018-07-13T10:37:31.240Z,1.60
2018-07-13T10:40:01.095Z,1.60
2018-07-13T10:42:30.135Z,1.63
2018-07-13T10:44:59.203Z,2.77
2018-07-13T10:47:28.247Z,3.30
2018-07-13T10:49:57.098Z,3.53
2018-07-13T10:52:26.019Z,2.07
2018-07-13T10:54:55.088Z,2.70
2018-07-13T10:57:24.139Z,2.50
2018-07-13T10:59:53.216Z,6.27
2018-07-13T11:02:22.255Z,2.77
2018-07-13T11:04:51.300Z,3.00
2018-07-13T11:07:20.404Z,2.97
2018-07-13T11:09:49.462Z,3.33
2018-07-13T11:12:18.537Z,4.40
2018-07-13T11:14:47.593Z,2.80
2018-07-13T11:17:16.669Z,2.87
2018-07-13T11:19:45.728Z,3.77
2018-07-13T11:22:14.804Z,3.33
2018-07-13T11:24:43.851Z,1.70
2018-07-13T11:27:12.923Z,2.13
2018-07-13T11:29:41.998Z,2.10
2018-07-13T11:32:11.523Z,1.93
2018-07-13T11:34:40.572Z,5.00
2018-07-13T11:37:09.501Z,2.73
2018-07-13T11:39:38.348Z,4.13
2018-07-13T11:42:07.419Z,4.37
2018-07-13T11:44:36.500Z,2.30
2018-07-13T11:47:05.579Z,2.07
2018-07-13T11:49:35.479Z,2.03
2018-07-13T11:52:04.599Z,1.97
2018-07-13T11:54:33.639Z,2.90
2018-07-13T11:57:02.707Z,3.47
2018-07-13T11:59:31.768Z,3.27
2018-07-13T12:02:00.840Z,3.03
2018-07-13T12:04:29.695Z,1.63
2018-07-13T12:06:58.648Z,1.90
2018-07-13T12:09:27.700Z,2.00
2018-07-13T12:11:56.483Z,2.37
2018-07-13T12:14:25.548Z,3.93
2018-07-13T12:16:55.793Z,2.20
2018-07-13T12:19:25.320Z,3.60
2018-07-13T12:21:54.363Z,2.63
2018-07-13T12:24:23.432Z,4.77
2018-07-13T12:26:52.228Z,1.72
2018-07-13T12:29:21.173Z,3.00
2018-07-13T12:31:50.210Z,3.90
2018-07-13T12:34:19.028Z,2.35
2018-07-13T12:36:47.953Z,1.60
2018-07-13T12:39:17.053Z,2.37
2018-07-13T12:41:46.108Z,2.83
2018-07-13T12:44:15.174Z,2.60
2018-07-13T12:46:43.971Z,3.02
2018-07-13T12:49:13.303Z,4.28
2018-07-13T12:51:42.591Z,3.00
2018-07-13T12:54:11.909Z,3.05
2018-07-13T12:56:40.911Z,4.17
2018-07-13T12:59:09.987Z,3.15
2018-07-13T13:01:39.035Z,4.12
2018-07-13T13:04:08.112Z,6.87
2018-07-13T13:06:37.163Z,3.58
2018-07-13T13:09:06.496Z,5.30
2018-07-13T13:11:35.543Z,6.17
2018-07-13T13:14:04.353Z,3.98
2018-07-13T13:16:33.019Z,3.90
2018-07-13T13:19:01.965Z,5.33
2018-07-13T13:21:31.183Z,5.50
2018-07-13T13:24:00.204Z,5.67
2018-07-13T13:26:29.026Z,5.10
2018-07-13T13:28:57.968Z,5.15
2018-07-13T13:31:27.039Z,9.95
2018-07-13T13:33:56.108Z,4.65
2018-07-13T13:36:25.147Z,4.08
2018-07-13T13:38:54.219Z,5.55
2018-07-13T13:41:23.263Z,6.67
2018-07-13T13:43:52.083Z,6.22
2018-07-13T13:46:20.812Z,6.78
2018-07-13T13:48:49.760Z,7.85
2018-07-13T13:51:18.803Z,6.70
2018-07-13T13:53:47.848Z,7.00
2018-07-13T13:56:16.948Z,7.80
2018-07-13T13:58:45.984Z,7.80
2018-07-13T14:01:15.056Z,7.53
2018-07-13T14:03:44.112Z,6.78
2018-07-13T14:06:12.920Z,8.03
2018-07-13T14:08:41.613Z,7.58
2018-07-13T14:11:10.290Z,7.60
2018-07-13T14:13:39.004Z,7.70
2018-07-13T14:16:07.948Z,7.05
2018-07-13T14:18:36.747Z,6.87
2018-07-13T14:21:05.983Z,6.33
2018-07-13T14:23:35.040Z,6.33
2018-07-13T14:26:03.851Z,6.05
2018-07-13T14:28:32.562Z,7.40
2018-07-13T14:31:01.501Z,6.85
2018-07-13T14:33:30.548Z,5.80
2018-07-13T14:35:59.625Z,6.15
2018-07-13T14:38:28.683Z,5.95
2018-07-13T14:40:57.755Z,6.75
2018-07-13T14:43:26.816Z,5.97
2018-07-13T14:45:55.880Z,5.53
2018-07-13T14:48:24.928Z,6.67
2018-07-13T14:50:54.004Z,4.97
2018-07-13T14:53:23.100Z,5.37
2018-07-13T14:55:52.142Z,6.30
2018-07-13T14:58:21.193Z,5.17
2018-07-13T15:00:50.255Z,4.83
2018-07-13T15:03:19.295Z,4.70
2018-07-13T15:05:48.403Z,4.87
2018-07-13T15:08:17.466Z,6.17
2018-07-13T15:10:46.549Z,4.60
2018-07-13T15:13:15.342Z,6.28
2018-07-13T15:15:44.313Z,3.98
2018-07-13T15:18:13.372Z,3.42
2018-07-13T15:20:42.426Z,3.72
2018-07-13T15:23:11.499Z,3.72
2018-07-13T15:25:40.550Z,4.55
2018-07-13T15:28:09.624Z,5.17
2018-07-13T15:30:38.680Z,4.95
2018-07-13T15:33:07.768Z,3.70
2018-07-13T15:35:36.834Z,4.62
2018-07-13T15:38:05.916Z,4.03
2018-07-13T15:40:34.983Z,4.20
2018-07-13T15:43:03.812Z,4.67
2018-07-13T15:45:32.747Z,9.98
2018-07-13T15:48:01.827Z,4.53
2018-07-13T15:50:30.879Z,8.68
2018-07-13T15:52:59.963Z,5.97
2018-07-13T15:55:33.091Z,5.60
2018-07-13T15:58:02.109Z,6.12
2018-07-13T16:00:31.163Z,6.58
2018-07-13T16:03:00.244Z,6.45
2018-07-13T16:05:29.343Z,8.45
2018-07-13T16:07:58.412Z,6.22
2018-07-13T16:10:27.594Z,5.87
2018-07-13T16:12:56.723Z,4.92
2018-07-13T16:15:25.555Z,4.85
2018-07-13T16:17:54.499Z,4.42
2018-07-13T16:20:23.539Z,4.60
2018-07-13T16:22:52.607Z,3.90
2018-07-13T16:25:21.528Z,4.55
2018-07-13T16:27:50.468Z,4.22
2018-07-13T16:30:19.552Z,4.20
2018-07-13T16:32:48.627Z,4.42
2018-07-13T16:35:17.685Z,4.58
2018-07-13T16:37:46.761Z,5.97
2018-07-13T16:40:15.805Z,8.18
2018-07-13T16:42:44.982Z,6.28
2018-07-13T16:45:14.140Z,5.35
2018-07-13T16:47:43.116Z,6.42
2018-07-13T16:50:12.166Z,6.87
2018-07-13T16:52:41.254Z,6.97
2018-07-13T16:55:10.048Z,7.12
2018-07-13T16:57:38.959Z,7.42
2018-07-13T17:00:08.016Z,7.25
2018-07-13T17:02:37.060Z,7.22
2018-07-13T17:05:06.119Z,8.00
2018-07-13T17:07:34.939Z,10.10
2018-07-13T17:10:04.015Z,11.48
2018-07-13T17:12:32.892Z,14.85
2018-07-13T17:15:01.884Z,14.83
2018-07-13T17:17:30.719Z,10.80
2018-07-13T17:19:59.667Z,14.80
2018-07-13T17:22:29.635Z,12.53
2018-07-13T17:24:58.735Z,13.20
2018-07-13T17:27:27.659Z,13.95
2018-07-13T17:29:56.899Z,15.10
2018-07-13T17:32:26.196Z,15.10
2018-07-13T17:34:56.059Z,17.75
2018-07-13T17:37:25.120Z,15.83
2018-07-13T17:39:54.295Z,15.45
2018-07-13T17:42:23.098Z,13.98
2018-07-13T17:44:52.076Z,14.00
2018-07-13T17:47:21.150Z,11.95
2018-07-13T17:49:50.232Z,13.78
2018-07-13T17:52:19.300Z,12.00
2018-07-13T17:54:48.392Z,14.90
2018-07-13T17:57:17.455Z,12.13
2018-07-13T17:59:46.288Z,12.63
2018-07-13T18:02:15.211Z,11.50
2018-07-13T18:04:44.288Z,8.50
2018-07-13T18:07:20.052Z,7.50
2018-07-13T18:09:49.138Z,7.50
2018-07-13T18:12:18.191Z,7.67
2018-07-13T18:14:47.264Z,8.38
2018-07-13T18:17:16.061Z,9.23
2018-07-13T18:19:45.008Z,7.33
2018-07-13T18:22:14.059Z,8.18
2018-07-13T18:24:43.136Z,7.30
2018-07-13T18:27:12.380Z,8.28
2018-07-13T18:29:41.469Z,9.85
2018-07-13T18:32:10.522Z,8.58
2018-07-13T18:34:39.604Z,8.88
2018-07-13T18:37:08.662Z,10.00
2018-07-13T18:39:37.986Z,9.90
2018-07-13T18:42:07.127Z,10.37
2018-07-13T18:44:35.927Z,8.97
2018-07-13T18:47:05.079Z,9.60
2018-07-13T18:49:34.140Z,10.33
2018-07-13T18:52:03.203Z,9.80
2018-07-13T18:54:32.034Z,9.53
2018-07-13T18:57:00.979Z,11.67
2018-07-13T18:59:30.061Z,9.87
2018-07-13T19:01:59.152Z,9.37
2018-07-13T19:04:28.223Z,10.00
2018-07-13T19:06:57.300Z,12.27
2018-07-13T19:09:26.440Z,9.47
2018-07-13T19:11:55.491Z,9.03
2018-07-13T19:14:24.536Z,8.60
2018-07-13T19:16:53.595Z,8.43
2018-07-13T19:19:22.631Z,8.03
2018-07-13T19:21:51.876Z,7.67
2018-07-13T19:24:20.934Z,7.13
2018-07-13T19:26:50.004Z,7.27
2018-07-13T19:29:19.044Z,7.33
2018-07-13T19:31:47.886Z,6.93
2018-07-13T19:34:16.845Z,7.23
2018-07-13T19:36:45.912Z,9.57
2018-07-13T19:39:14.947Z,8.73
2018-07-13T19:41:44.010Z,7.67
2018-07-13T19:44:13.039Z,7.90
2018-07-13T19:46:42.195Z,8.43
2018-07-13T19:49:11.176Z,9.00
2018-07-13T19:51:40.298Z,11.47
2018-07-13T19:54:09.365Z,9.00
2018-07-13T19:56:38.428Z,9.37
2018-07-13T19:59:07.494Z,9.17
2018-07-13T20:01:36.312Z,9.40
2018-07-13T20:04:05.583Z,8.47
2018-07-13T20:06:34.633Z,10.13
2018-07-13T20:09:04.682Z,13.33
2018-07-13T20:11:33.754Z,8.40
2018-07-13T20:14:02.836Z,10.73
2018-07-13T20:16:31.892Z,8.07
2018-07-13T20:19:01.010Z,10.23
2018-07-13T20:21:30.093Z,9.07
2018-07-13T20:23:59.160Z,8.87
2018-07-13T20:26:28.277Z,10.90
2018-07-13T20:28:57.316Z,9.73
2018-07-13T20:31:26.367Z,10.07
2018-07-13T20:33:55.456Z,13.13
2018-07-13T20:36:24.258Z,9.40
2018-07-13T20:38:52.963Z,11.73
2018-07-13T20:41:21.895Z,9.33
2018-07-13T20:43:50.769Z,12.20
2018-07-13T20:46:21.388Z,10.63
2018-07-13T20:48:50.464Z,9.50
2018-07-13T20:51:19.523Z,10.87
2018-07-13T20:53:48.661Z,13.57
2018-07-13T20:56:17.725Z,13.20
2018-07-13T20:58:46.550Z,12.03
2018-07-13T21:01:15.495Z,9.47
2018-07-13T21:03:44.573Z,9.97
2018-07-13T21:06:13.628Z,12.43
2018-07-13T21:08:42.712Z,10.27
2018-07-13T21:11:11.768Z,11.10
2018-07-13T21:13:40.883Z,13.97
2018-07-13T21:16:09.922Z,11.17
2018-07-13T21:18:39.388Z,11.70
2018-07-13T21:21:08.182Z,10.87
2018-07-13T21:23:37.134Z,12.70
2018-07-13T21:26:06.367Z,13.33
2018-07-13T21:28:35.296Z,14.90
2018-07-13T21:31:04.188Z,14.30
2018-07-13T21:33:34.780Z,11.00
2018-07-13T21:36:03.818Z,11.67
2018-07-13T21:38:32.883Z,12.73
2018-07-13T21:41:01.927Z,11.03
2018-07-13T21:43:31.132Z,12.23
2018-07-13T21:46:00.190Z,13.07
2018-07-13T21:48:29.246Z,12.43
2018-07-13T21:50:58.306Z,12.73
2018-07-13T21:53:27.363Z,16.27
2018-07-13T21:55:56.213Z,10.80
2018-07-13T21:58:25.179Z,13.20
2018-07-13T22:00:54.251Z,11.77
2018-07-13T22:03:23.304Z,10.73
2018-07-13T22:05:52.380Z,13.00
2018-07-13T22:08:21.456Z,13.50
2018-07-13T22:10:50.533Z,12.47
2018-07-13T22:13:19.604Z,11.23
2018-07-13T22:15:49.164Z,12.87
2018-07-13T22:18:18.211Z,13.63
2018-07-13T22:20:47.288Z,11.57
2018-07-13T22:23:16.573Z,11.77
2018-07-13T22:25:45.656Z,12.83
2018-07-13T22:28:14.711Z,12.23
2018-07-13T22:30:43.552Z,12.63
2018-07-13T22:33:12.472Z,12.37
2018-07-13T22:35:41.543Z,14.23
2018-07-13T22:38:10.587Z,11.03
2018-07-13T22:40:39.439Z,14.97
2018-07-13T22:43:08.508Z,12.63
2018-07-13T22:45:37.579Z,13.50
2018-07-13T22:48:06.623Z,15.60
2018-07-13T22:50:35.690Z,15.73
2018-07-13T22:53:04.760Z,15.50
2018-07-13T22:55:33.823Z,17.63
2018-07-13T22:58:02.892Z,18.87
2018-07-13T23:00:31.977Z,18.97
2018-07-13T23:03:01.025Z,15.07
2018-07-13T23:05:30.090Z,16.10
2018-07-13T23:07:59.192Z,15.87
2018-07-13T23:10:28.267Z,14.10
2018-07-13T23:12:57.324Z,19.03
2018-07-13T23:15:26.143Z,15.23
2018-07-13T23:17:54.830Z,18.80
2018-07-13T23:20:23.861Z,16.80
2018-07-13T23:22:53.119Z,16.27
2018-07-13T23:25:22.168Z,14.33
2018-07-13T23:27:51.247Z,21.00
2018-07-13T23:30:20.291Z,17.37
2018-07-13T23:32:49.107Z,17.77
2018-07-13T23:35:18.056Z,16.23
2018-07-13T23:37:47.230Z,17.07
2018-07-13T23:40:16.320Z,20.70
2018-07-13T23:42:45.383Z,16.30
2018-07-13T23:45:14.435Z,17.17
2018-07-13T23:47:43.532Z,15.27
2018-07-13T23:50:12.612Z,18.67
2018-07-13T23:52:41.678Z,16.67
2018-07-13T23:55:10.744Z,17.43
2018-07-13T23:57:39.815Z,17.93
